KCRP/CRP METAR and TAF weather

Enter ICAO airport designator
Station Type Date Time Source
KCRP METAR 2019/04/26 03:51 UTC NOAA

KCRP 260351Z 16006KT 10SM CLR 21/18 A2997 RMK AO2 SLP149 T02060178 $


Station Type Date Time Source
KCRP Decoded METAR 2019/04/26 03:51 UTC NOAA

CORPUS CHRISTI INTERNATIONAL , TX, United States (KCRP) 27-46N 97-31W 16M
Apr 25, 2019 - 11:51 PM EDT / 2019.04.26 0351 UTC
Wind: from the SSE (160 degrees) at 7 MPH (6 KT):0
Visibility: 10 mile(s):0
Sky conditions: clear
Temperature: 69.1 F (20.6 C)
Dew Point: 64.0 F (17.8 C)
Relative Humidity: 83%
Pressure (altimeter): 29.97 in. Hg (1014 hPa)
ob: KCRP 260351Z 16006KT 10SM CLR 21/18 A2997 RMK AO2 SLP149 T02060178
cycle: 4

Station Type Date Time Source
KCRP TAF 2019/04/25 18:22 UTC NOAA

TAF KCRP 251720Z 2518/2618 32009KT P6SM FEW250
FM260000 01003KT P6SM SKC
FM261400 01007KT P6SM SKC

Example: see airport list